CheckWX is a tool to help pilots better visualize weather data.  It is not intended as a substitute for an official pre-flight weather briefing.

01:31:03 UTC

EGPD METAR
Aberdeen Dyce Airport
Aberdeen, United Kingdom
Current

41 mins ago

EGPD 300050Z AUTO 16008KT 9999 NCD 11/08 Q1027
Observed
May-30 @ 00:50 UTC
Wind
  • 160° at 8 KTS
Visibility
10,000+ meters
Flight Rules
VFR
Cloud Levels
  • Clear skies
Temperature
11°C / 52°F
Dewpoint
C / 46°F
Humidity
82%
Altimeter
30.32" Hg
Pressure
1026.92 hPa
Previous

1 hour ago

EGPD 300020Z AUTO 15005KT 9999 NCD 12/08 Q1026 NOSIG
Observed
May-30 @ 00:20 UTC
Wind
  • 150° at 5 KTS
Visibility
10,000+ meters
Flight Rules
VFR
Cloud Levels
  • Clear skies
Temperature
12°C / 54°F
Dewpoint
C / 46°F
Humidity
77%
Altimeter
30.3" Hg
Pressure
1025.92 hPa
Previous

2 hours ago

EGPD 292350Z AUTO 15007KT 9999 NCD 12/08 Q1026 NOSIG
Observed
May-29 @ 23:50 UTC
Wind
  • 150° at 7 KTS
Visibility
10,000+ meters
Flight Rules
VFR
Cloud Levels
  • Clear skies
Temperature
12°C / 54°F
Dewpoint
C / 46°F
Humidity
77%
Altimeter
30.3" Hg
Pressure
1025.92 hPa